Time;durP1;ratioP1;P1;durP2;ratioP2;P2;SDS_P1;SDS_P2;PMS_P1;PMS_P2;Temp;Humidity;BMP_temperature;BMP_pressure;BME280_temperature;BME280_humidity;BME280_pressure;Samples;Min_cycle;Max_cycle;Signal;HPM_P1;HPM_P2
2023/04/21 00:01:19;;;;;;;8.95;5.50;;;;;;;17.89;44.40;101732.44;5081653;28;20059;-39
2023/04/21 00:03:46;;;;;;;7.97;5.22;;;;;;;17.89;44.20;101728.88;5081246;28;20351;-39
2023/04/21 00:06:14;;;;;;;6.78;4.53;;;;;;;17.91;44.25;101732.28;5080388;28;20048;-38
2023/04/21 00:08:40;;;;;;;6.82;4.75;;;;;;;17.89;44.74;101735.13;5085549;28;20046;-40
2023/04/21 00:11:07;;;;;;;8.13;5.18;;;;;;;17.90;44.42;101731.44;5081375;28;20045;-40
2023/04/21 00:13:35;;;;;;;6.85;4.57;;;;;;;17.91;44.41;101733.13;5082572;28;20430;-41
2023/04/21 00:16:02;;;;;;;7.18;4.63;;;;;;;17.90;44.67;101731.44;5079776;28;20475;-40
2023/04/21 00:18:29;;;;;;;6.90;4.65;;;;;;;17.91;44.41;101725.09;5079408;28;20048;-38
2023/04/21 00:20:56;;;;;;;7.32;4.78;;;;;;;17.93;44.41;101716.91;5081684;28;20461;-40
2023/04/21 00:23:23;;;;;;;7.22;4.90;;;;;;;17.93;44.08;101706.16;5083443;28;20495;-39
2023/04/21 00:25:49;;;;;;;7.40;4.95;;;;;;;17.92;44.70;101693.75;5086150;28;20060;-40
2023/04/21 00:28:16;;;;;;;7.85;4.93;;;;;;;17.90;44.49;101701.94;5084453;28;20067;-40
2023/04/21 00:30:42;;;;;;;7.35;5.05;;;;;;;17.94;44.39;101692.66;5084373;28;20431;-39
2023/04/21 00:33:09;;;;;;;7.10;4.57;;;;;;;17.99;44.30;101692.25;5078655;28;20427;-38
2023/04/21 00:35:35;;;;;;;7.80;4.78;;;;;;;18.07;44.19;101688.91;5082954;28;20450;-40
2023/04/21 00:38:02;;;;;;;8.63;4.97;;;;;;;18.16;44.02;101675.53;5082113;28;20051;-40
2023/04/21 00:40:28;;;;;;;6.55;4.55;;;;;;;18.28;43.83;101678.97;5085825;28;20060;-40
2023/04/21 00:42:55;;;;;;;6.00;4.38;;;;;;;18.38;43.76;101681.72;5084199;28;20075;-40
2023/04/21 00:45:21;;;;;;;6.30;4.32;;;;;;;18.47;43.61;101675.50;5085026;28;20052;-40
2023/04/21 00:47:48;;;;;;;6.63;4.45;;;;;;;18.54;43.52;101679.34;5083918;28;20427;-40
2023/04/21 00:50:15;;;;;;;7.47;4.53;;;;;;;18.62;43.18;101671.47;5082393;28;20048;-40
2023/04/21 00:52:43;;;;;;;5.43;3.92;;;;;;;18.71;43.18;101667.13;5077722;28;20044;-39
2023/04/21 00:55:10;;;;;;;6.65;4.57;;;;;;;18.78;43.06;101678.19;5084532;28;20051;-41
2023/04/21 00:57:36;;;;;;;6.80;4.40;;;;;;;18.84;42.84;101675.78;5079587;28;20076;-40
2023/04/21 01:00:07;;;;;;;5.93;4.22;;;;;;;18.89;42.89;101669.97;5080534;28;20059;-40
2023/04/21 01:02:36;;;;;;;6.20;4.30;;;;;;;18.93;42.68;101666.03;5085737;28;20155;-39
2023/04/21 01:05:07;;;;;;;6.38;4.38;;;;;;;18.93;42.74;101653.44;5081758;28;20095;-40
2023/04/21 01:07:35;;;;;;;6.50;4.40;;;;;;;18.93;43.04;101661.50;5082894;28;20110;-38
2023/04/21 01:10:02;;;;;;;6.32;4.28;;;;;;;18.94;42.95;101663.22;5083355;28;20049;-39
2023/04/21 01:12:29;;;;;;;6.13;4.15;;;;;;;18.94;42.77;101667.75;5081768;28;20055;-39
2023/04/21 01:14:56;;;;;;;7.32;4.43;;;;;;;18.93;42.69;101664.19;5083449;28;20048;-39
2023/04/21 01:17:22;;;;;;;7.03;4.00;;;;;;;18.92;42.69;101667.88;5084690;28;20045;-41
2023/04/21 01:19:52;;;;;;;6.68;4.40;;;;;;;18.90;42.78;101656.44;5084340;28;20112;-42
2023/04/21 01:22:18;;;;;;;6.18;3.92;;;;;;;18.89;42.74;101657.41;5084902;28;20593;-41
2023/04/21 01:24:46;;;;;;;5.70;3.95;;;;;;;18.89;42.94;101656.56;5083042;28;20053;-37
2023/04/21 01:27:17;;;;;;;6.57;4.05;;;;;;;18.87;43.15;101654.03;5078199;28;20446;-40
2023/04/21 01:29:46;;;;;;;6.05;4.13;;;;;;;18.85;42.91;101652.44;5087703;28;20078;-41
2023/04/21 01:32:15;;;;;;;5.57;4.00;;;;;;;18.82;42.92;101640.16;5080988;28;20044;-40
2023/04/21 01:34:43;;;;;;;5.47;3.95;;;;;;;18.82;42.94;101642.00;5085835;28;20435;-40
2023/04/21 01:37:11;;;;;;;6.07;4.20;;;;;;;18.81;42.98;101642.97;5082288;28;20054;-37
2023/04/21 01:39:39;;;;;;;6.63;3.90;;;;;;;18.79;43.24;101644.97;5084662;28;20056;-40
2023/04/21 01:42:06;;;;;;;5.32;3.90;;;;;;;18.77;42.85;101641.56;5077946;28;20055;-40
2023/04/21 01:44:33;;;;;;;6.32;3.95;;;;;;;18.76;43.05;101646.06;5066535;28;20040;-38
2023/04/21 01:46:59;;;;;;;6.22;3.88;;;;;;;18.74;42.90;101643.53;5065541;28;20431;-40
2023/04/21 01:49:26;;;;;;;5.95;4.05;;;;;;;18.73;42.91;101636.47;5075950;28;20403;-40
2023/04/21 01:51:52;;;;;;;5.22;3.88;;;;;;;18.72;43.29;101626.69;5083454;28;20060;-40
2023/04/21 01:54:19;;;;;;;4.75;3.60;;;;;;;18.71;43.22;101622.34;5080660;28;20044;-40
2023/04/21 01:56:46;;;;;;;7.30;4.45;;;;;;;18.70;43.52;101625.16;5080749;28;20388;-38
2023/04/21 01:59:12;;;;;;;5.78;4.22;;;;;;;18.70;42.88;101623.31;5084115;28;20052;-40
2023/04/21 02:01:39;;;;;;;5.93;3.70;;;;;;;18.68;43.11;101619.03;5081019;28;20048;-40
2023/04/21 02:04:06;;;;;;;5.07;3.53;;;;;;;18.67;42.82;101615.50;5078731;28;20139;-39
2023/04/21 02:06:32;;;;;;;6.80;4.05;;;;;;;18.66;42.86;101612.97;5078818;28;20060;-40
2023/04/21 02:08:59;;;;;;;5.07;3.80;;;;;;;18.64;43.30;101610.41;5082714;28;20055;-36
2023/04/21 02:11:25;;;;;;;5.43;3.47;;;;;;;18.60;43.47;101611.66;5087037;28;20044;-41
2023/04/21 02:13:53;;;;;;;5.53;3.72;;;;;;;18.58;43.47;101616.34;5087983;28;20048;-40
2023/04/21 02:16:24;;;;;;;5.38;3.70;;;;;;;18.57;43.22;101611.94;5080799;28;20585;-39
2023/04/21 02:18:55;;;;;;;4.88;3.45;;;;;;;18.56;43.80;101606.72;5084608;28;20040;-40
2023/04/21 02:21:26;;;;;;;4.97;3.92;;;;;;;18.56;43.14;101618.31;5083242;28;20131;-38
2023/04/21 02:23:53;;;;;;;5.47;3.90;;;;;;;18.53;43.50;101607.84;5081544;28;20054;-39
2023/04/21 02:26:20;;;;;;;4.50;3.55;;;;;;;18.50;43.40;101608.13;5085750;28;20127;-39
2023/04/21 02:28:46;;;;;;;5.13;3.83;;;;;;;18.49;43.26;101617.16;5089541;28;20336;-40
2023/04/21 02:31:13;;;;;;;5.95;4.28;;;;;;;18.45;43.39;101613.03;5085649;28;20076;-39
2023/04/21 02:33:40;;;;;;;4.95;3.72;;;;;;;18.41;43.55;101607.13;5082966;28;20387;-40
2023/04/21 02:36:06;;;;;;;5.53;3.63;;;;;;;18.37;43.80;101610.19;5085615;28;20047;-38
2023/04/21 02:38:33;;;;;;;5.03;3.75;;;;;;;18.33;43.74;101604.28;5081642;28;20044;-40
2023/04/21 02:41:00;;;;;;;6.15;3.78;;;;;;;18.29;44.04;101599.31;5084965;28;20124;-37
2023/04/21 02:43:27;;;;;;;5.72;3.72;;;;;;;18.28;43.63;101600.28;5089510;28;20071;-39
2023/04/21 02:45:53;;;;;;;5.13;3.42;;;;;;;18.28;44.13;101592.25;5088585;28;20056;-36
2023/04/21 02:48:21;;;;;;;5.82;3.42;;;;;;;18.30;43.57;101592.97;5084886;28;20052;-40
2023/04/21 02:50:49;;;;;;;5.22;3.90;;;;;;;18.37;43.64;101594.97;5088935;28;20048;-38
2023/04/21 02:53:16;;;;;;;5.57;3.47;;;;;;;18.44;43.90;101592.56;5090107;28;20430;-39
2023/04/21 02:55:42;;;;;;;5.50;3.47;;;;;;;18.50;43.59;101582.13;5088995;28;20080;-40
2023/04/21 02:58:09;;;;;;;5.55;3.60;;;;;;;18.56;43.30;101588.78;5087098;28;20131;-40
2023/04/21 03:00:36;;;;;;;5.38;3.80;;;;;;;18.62;43.62;101582.88;5086590;28;20157;-40
2023/04/21 03:03:03;;;;;;;5.53;3.53;;;;;;;18.67;42.98;101583.28;5080588;28;20364;-39
2023/04/21 03:05:30;;;;;;;4.47;3.35;;;;;;;18.73;43.25;101577.41;5086340;28;20369;-40
2023/04/21 03:07:57;;;;;;;4.57;3.45;;;;;;;18.78;43.23;101592.25;5088756;28;20131;-40
2023/04/21 03:10:23;;;;;;;4.82;3.33;;;;;;;18.82;43.27;101582.91;5087914;28;20079;-41
2023/04/21 03:12:50;;;;;;;5.28;3.47;;;;;;;18.84;43.40;101586.28;5087887;28;20047;-40
2023/04/21 03:15:18;;;;;;;3.75;2.97;;;;;;;18.84;42.98;101581.75;5092151;28;20428;-39
2023/04/21 03:17:44;;;;;;;4.43;3.40;;;;;;;18.84;42.99;101583.59;5083189;28;20044;-40
2023/04/21 03:20:11;;;;;;;5.65;3.58;;;;;;;18.82;43.33;101586.44;5085814;28;20492;-39
2023/04/21 03:22:38;;;;;;;6.63;3.58;;;;;;;18.80;43.30;101590.25;5087449;28;20431;-39
2023/04/21 03:25:06;;;;;;;5.13;3.55;;;;;;;18.78;43.02;101585.03;5084119;28;20442;-38
2023/04/21 03:27:33;;;;;;;4.63;3.17;;;;;;;18.77;42.97;101590.53;5080522;28;20044;-40
2023/04/21 03:30:00;;;;;;;4.63;3.47;;;;;;;18.75;43.32;101590.69;5081786;28;20059;-38
2023/04/21 03:32:26;;;;;;;5.18;3.63;;;;;;;18.72;42.94;101586.41;5082186;28;20053;-38
2023/04/21 03:34:53;;;;;;;4.30;3.08;;;;;;;18.69;43.42;101565.22;5082445;28;20071;-39
2023/04/21 03:37:20;;;;;;;5.53;3.78;;;;;;;18.68;43.21;101581.44;5082370;28;20064;-40
2023/04/21 03:39:46;;;;;;;4.55;3.28;;;;;;;18.65;43.37;101579.91;5085042;28;20125;-39
2023/04/21 03:42:13;;;;;;;4.28;3.00;;;;;;;18.62;43.01;101573.97;5089287;28;20063;-39
2023/04/21 03:44:39;;;;;;;4.28;3.25;;;;;;;18.56;43.15;101559.25;5085470;28;20139;-38
2023/04/21 03:47:06;;;;;;;4.50;3.22;;;;;;;18.54;43.21;101563.91;5083153;28;20049;-40
2023/04/21 03:49:33;;;;;;;4.63;3.35;;;;;;;18.49;43.80;101555.41;5083180;28;20443;-38
2023/04/21 03:52:00;;;;;;;4.75;3.72;;;;;;;18.44;43.56;101544.25;5080344;28;20048;-40
2023/04/21 03:54:26;;;;;;;4.28;3.10;;;;;;;18.39;44.06;101549.19;5080700;28;20037;-40
2023/04/21 03:56:53;;;;;;;4.63;3.25;;;;;;;18.34;43.48;101554.13;5086090;28;20044;-37
2023/04/21 03:59:20;;;;;;;4.85;3.28;;;;;;;18.30;44.05;101558.09;5085649;28;20052;-38
2023/04/21 04:01:47;;;;;;;5.22;3.40;;;;;;;18.24;44.13;101548.72;5082542;28;20040;-39
2023/04/21 04:04:13;;;;;;;4.15;3.15;;;;;;;18.18;44.43;101534.03;5084062;28;20060;-37
2023/04/21 04:06:40;;;;;;;5.20;3.88;;;;;;;18.14;44.28;101539.81;5081041;28;20347;-39
2023/04/21 04:09:07;;;;;;;6.80;3.83;;;;;;;18.09;44.36;101539.38;5085197;28;20047;-38
2023/04/21 04:11:34;;;;;;;5.55;3.78;;;;;;;18.04;44.46;101545.16;5086842;28;20076;-39
2023/04/21 04:14:01;;;;;;;5.28;3.70;;;;;;;18.00;44.71;101543.72;5084621;28;20101;-39
2023/04/21 04:16:28;;;;;;;6.00;4.30;;;;;;;17.94;44.69;101530.88;5078279;28;20650;-39
2023/04/21 04:18:55;;;;;;;5.07;3.95;;;;;;;17.90;44.72;101537.50;5082950;28;20094;-37
2023/04/21 04:21:21;;;;;;;3.67;3.05;;;;;;;17.87;45.29;101533.25;5088002;28;20056;-41
2023/04/21 04:23:50;;;;;;;5.47;3.83;;;;;;;17.83;45.12;101534.50;5084872;28;20048;-40
2023/04/21 04:26:17;;;;;;;4.72;3.50;;;;;;;17.81;44.84;101527.56;5086899;28;20135;-37
2023/04/21 04:28:44;;;;;;;6.85;3.53;;;;;;;17.77;44.97;101532.38;5085512;28;20068;-37
2023/04/21 04:31:12;;;;;;;5.53;3.65;;;;;;;17.74;45.24;101532.59;5083603;28;20466;-39
2023/04/21 04:33:42;;;;;;;4.40;3.25;;;;;;;17.71;44.96;101536.38;5080014;28;20053;-39
2023/04/21 04:36:10;;;;;;;5.47;3.60;;;;;;;17.69;45.46;101524.13;5084723;28;20577;-40
2023/04/21 04:38:37;;;;;;;4.13;3.22;;;;;;;17.66;45.32;101538.63;5081539;28;20086;-38
2023/04/21 04:41:05;;;;;;;4.85;3.50;;;;;;;17.63;45.41;101536.22;5084973;28;20117;-40
2023/04/21 04:43:40;;;;;;;5.28;3.40;;;;;;;17.63;45.38;101544.25;5080236;28;20052;-40
2023/04/21 04:46:11;;;;;;;4.68;3.40;;;;;;;17.61;45.41;101545.34;5082578;28;20678;-37
2023/04/21 04:48:38;;;;;;;4.28;3.17;;;;;;;17.60;45.45;101546.34;5086517;28;20062;-39
2023/04/21 04:51:06;;;;;;;4.95;3.47;;;;;;;17.66;44.99;101552.03;5083774;28;20076;-38
2023/04/21 04:53:33;;;;;;;5.32;3.63;;;;;;;17.74;45.22;101548.69;5083708;28;20482;-40
2023/04/21 04:55:59;;;;;;;3.75;3.05;;;;;;;17.83;44.87;101544.38;5081860;28;20204;-40
2023/04/21 04:58:26;;;;;;;4.18;3.13;;;;;;;17.92;44.90;101549.75;5080538;28;20351;-40
2023/04/21 05:00:53;;;;;;;4.82;3.58;;;;;;;18.03;44.80;101538.09;5082536;28;20329;-40
2023/04/21 05:03:19;;;;;;;4.18;3.38;;;;;;;18.14;44.42;101540.69;5085505;28;20056;-39
2023/04/21 05:05:46;;;;;;;4.40;3.15;;;;;;;18.22;44.45;101546.19;5087557;28;20048;-40
2023/04/21 05:08:13;;;;;;;7.05;3.45;;;;;;;18.33;44.45;101544.38;5084282;28;20044;-40
2023/04/21 05:10:43;;;;;;;4.88;3.58;;;;;;;18.41;43.95;101541.84;5086420;28;20055;-39
2023/04/21 05:13:09;;;;;;;5.63;3.58;;;;;;;18.49;44.25;101542.00;5084667;28;20135;-39
2023/04/21 05:15:36;;;;;;;6.72;2.97;;;;;;;18.56;43.59;101540.44;5084274;28;20327;-41
2023/04/21 05:18:02;;;;;;;4.22;3.30;;;;;;;18.60;43.67;101541.03;5082305;28;20059;-39
2023/04/21 05:20:29;;;;;;;4.55;3.40;;;;;;;18.64;43.57;101551.34;5084094;28;20056;-40
2023/04/21 05:22:55;;;;;;;4.80;3.40;;;;;;;18.65;43.84;101558.44;5087737;28;20127;-39
2023/04/21 05:25:22;;;;;;;3.58;2.83;;;;;;;18.66;43.58;101554.75;5088806;28;20048;-38
2023/04/21 05:27:49;;;;;;;4.40;3.30;;;;;;;18.65;43.81;101557.53;5084921;28;20048;-40
2023/04/21 05:30:15;;;;;;;5.10;3.10;;;;;;;18.62;43.72;101547.97;5082989;28;20062;-37
2023/04/21 05:32:42;;;;;;;4.32;3.10;;;;;;;18.62;44.08;101557.84;5076404;28;20048;-39
2023/04/21 05:35:08;;;;;;;4.25;3.33;;;;;;;18.61;43.67;101554.28;5081635;28;20040;-37
2023/04/21 05:37:35;;;;;;;3.50;2.95;;;;;;;18.61;43.80;101556.13;5086317;28;20052;-37
2023/04/21 05:40:02;;;;;;;6.45;3.35;;;;;;;18.59;43.57;101558.13;5081920;28;20076;-40
2023/04/21 05:42:28;;;;;;;4.88;3.15;;;;;;;18.59;43.91;101563.50;5079203;28;20127;-39
2023/04/21 05:44:55;;;;;;;4.55;3.40;;;;;;;18.57;43.69;101568.97;5080924;28;20049;-40
2023/04/21 05:47:22;;;;;;;4.90;3.17;;;;;;;18.57;43.40;101568.97;5076417;28;20505;-40
2023/04/21 05:49:52;;;;;;;3.80;3.10;;;;;;;18.55;43.82;101559.41;5081133;28;20052;-39
2023/04/21 05:52:20;;;;;;;3.60;3.00;;;;;;;18.54;43.56;101560.38;5080426;28;20052;-38
2023/04/21 05:54:47;;;;;;;4.40;2.80;;;;;;;18.50;43.51;101563.34;5066705;28;20055;-40
2023/04/21 05:57:15;;;;;;;5.30;2.95;;;;;;;18.48;43.84;101568.00;5080398;28;20052;-39
2023/04/21 05:59:42;;;;;;;3.10;2.67;;;;;;;18.45;44.02;101567.41;5083905;28;20058;-37
2023/04/21 06:02:09;;;;;;;3.97;2.83;;;;;;;18.41;43.76;101579.41;5076948;28;20756;-37
2023/04/21 06:04:36;;;;;;;3.42;2.97;;;;;;;18.37;43.84;101575.31;5083428;28;20056;-40
2023/04/21 06:07:08;;;;;;;3.88;3.10;;;;;;;18.32;43.91;101578.41;5086962;28;20377;-41
2023/04/21 06:09:35;;;;;;;4.75;3.45;;;;;;;18.28;44.30;101577.00;5080545;28;20056;-40
2023/04/21 06:12:02;;;;;;;4.47;3.28;;;;;;;18.24;44.49;101572.88;5081494;28;20459;-39
2023/04/21 06:14:29;;;;;;;4.32;3.47;;;;;;;18.19;44.23;101578.66;5080597;28;20109;-41
2023/04/21 06:16:55;;;;;;;4.25;3.00;;;;;;;18.15;44.47;101571.88;5078369;28;20044;-39
2023/04/21 06:19:22;;;;;;;4.28;3.30;;;;;;;18.11;44.60;101570.44;5079555;28;20052;-38
2023/04/21 06:21:49;;;;;;;5.18;3.75;;;;;;;18.08;44.78;101569.88;5076083;28;20048;-40
2023/04/21 06:24:23;;;;;;;4.65;3.65;;;;;;;18.05;44.64;101567.44;5077401;28;20044;-41
2023/04/21 06:26:51;;;;;;;;;;;;;;;17.99;44.96;101575.06;5081685;28;20058;-43
2023/04/21 06:29:18;;;;;;;4.75;3.28;;;;;;;17.99;44.81;101563.50;5096967;28;19924;-43
2023/04/21 06:31:45;;;;;;;7.72;3.88;;;;;;;17.94;44.94;101565.75;5079775;28;20058;-39
2023/04/21 06:34:12;;;;;;;4.90;3.47;;;;;;;17.91;44.67;101566.84;5083460;28;20093;-39
2023/04/21 06:36:38;;;;;;;5.40;4.05;;;;;;;17.89;45.13;101567.97;5080403;28;20048;-40
2023/04/21 06:39:05;;;;;;;5.38;3.90;;;;;;;17.86;44.77;101571.78;5080181;28;20045;-40
2023/04/21 06:41:31;;;;;;;6.72;3.70;;;;;;;17.85;44.99;101569.22;5081097;28;20048;-39
2023/04/21 06:43:58;;;;;;;5.22;4.00;;;;;;;17.82;44.80;101570.34;5076536;28;20127;-38
2023/04/21 06:46:24;;;;;;;6.35;4.60;;;;;;;17.80;45.13;101561.56;5084661;28;20464;-40
2023/04/21 06:48:51;;;;;;;7.47;4.35;;;;;;;17.78;45.36;101560.03;5077448;28;20093;-40
2023/04/21 06:51:18;;;;;;;5.82;4.30;;;;;;;17.78;45.39;101562.72;5087021;28;20052;-40
2023/04/21 06:53:44;;;;;;;5.28;4.13;;;;;;;17.77;45.35;101575.28;5083297;28;20190;-39
2023/04/21 06:56:11;;;;;;;5.93;3.90;;;;;;;17.76;45.54;101569.03;5084518;28;20066;-40
2023/04/21 06:58:37;;;;;;;6.45;3.80;;;;;;;17.75;45.38;101567.34;5088279;28;20135;-40
2023/04/21 07:01:04;;;;;;;5.80;3.90;;;;;;;17.75;45.36;101561.97;5082578;28;20423;-39
2023/04/21 07:03:31;;;;;;;6.22;3.75;;;;;;;17.75;45.44;101563.81;5086188;28;20055;-42
2023/04/21 07:05:57;;;;;;;5.68;3.90;;;;;;;17.77;45.34;101567.22;5084280;28;20089;-41
2023/04/21 07:08:24;;;;;;;5.22;3.72;;;;;;;17.80;45.34;101560.72;5080952;28;21150;-41
2023/04/21 07:10:50;;;;;;;8.90;4.75;;;;;;;17.82;45.54;101561.47;5080314;28;20052;-40
2023/04/21 07:13:17;;;;;;;6.57;4.57;;;;;;;17.86;45.60;101561.06;5080609;28;20474;-40
2023/04/21 07:15:44;;;;;;;5.70;4.32;;;;;;;17.88;45.12;101559.06;5085377;28;20044;-40
2023/04/21 07:18:10;;;;;;;6.20;4.43;;;;;;;17.93;45.22;101554.16;5082070;28;20048;-41
2023/04/21 07:20:38;;;;;;;8.18;5.18;;;;;;;17.97;45.06;101558.28;5082972;28;20059;-39
2023/04/21 07:23:04;;;;;;;6.88;4.35;;;;;;;17.99;44.96;101560.81;5082861;28;20367;-38
2023/04/21 07:25:31;;;;;;;7.85;4.30;;;;;;;18.00;45.18;101566.03;5082689;28;20040;-41
2023/04/21 07:27:57;;;;;;;6.78;4.75;;;;;;;18.03;45.26;101564.06;5086754;28;20064;-41
2023/04/21 07:30:24;;;;;;;6.90;4.43;;;;;;;18.03;45.02;101562.25;5087386;28;20041;-40
2023/04/21 07:32:50;;;;;;;7.53;4.78;;;;;;;18.05;45.18;101554.91;5083103;28;20053;-40
2023/04/21 07:35:17;;;;;;;8.85;4.60;;;;;;;18.08;45.12;101565.34;5078204;28;20145;-39
2023/04/21 07:37:44;;;;;;;7.82;5.60;;;;;;;18.10;45.39;101560.72;5082249;28;20052;-39
2023/04/21 07:40:11;;;;;;;7.38;4.70;;;;;;;18.13;45.05;101563.13;5082458;28;20044;-39
2023/04/21 07:42:38;;;;;;;8.27;5.10;;;;;;;18.16;45.36;101565.50;5082884;28;20052;-40
2023/04/21 07:45:06;;;;;;;6.90;4.55;;;;;;;18.18;45.00;101560.03;5083417;28;20040;-40
2023/04/21 07:47:33;;;;;;;7.22;5.13;;;;;;;18.20;45.11;101564.25;5079230;28;20435;-40
2023/04/21 07:50:00;;;;;;;8.07;5.07;;;;;;;18.24;44.95;101571.03;5085083;28;20048;-41
2023/04/21 07:52:26;;;;;;;8.77;4.60;;;;;;;18.28;45.21;101570.78;5089521;28;20078;-40
2023/04/21 07:54:53;;;;;;;8.75;5.03;;;;;;;18.29;44.84;101565.28;5086078;28;20411;-40
2023/04/21 07:57:19;;;;;;;6.22;4.80;;;;;;;18.32;44.82;101575.72;5081719;28;20047;-41
2023/04/21 07:59:46;;;;;;;7.35;5.07;;;;;;;18.34;44.74;101571.09;5085640;28;20059;-40
2023/04/21 08:02:13;;;;;;;8.13;5.57;;;;;;;18.36;44.88;101573.63;5085744;28;20048;-40
2023/04/21 08:04:39;;;;;;;7.63;4.70;;;;;;;18.38;44.97;101579.72;5084381;28;20149;-39
2023/04/21 08:07:06;;;;;;;7.90;5.20;;;;;;;18.39;44.53;101568.81;5083387;28;20044;-41
2023/04/21 08:09:33;;;;;;;7.70;5.13;;;;;;;18.41;44.98;101566.00;5089073;28;20044;-39
2023/04/21 08:12:01;;;;;;;8.00;4.95;;;;;;;18.41;44.31;101572.25;5084462;28;20048;-41
2023/04/21 08:14:27;;;;;;;10.85;6.20;;;;;;;18.42;44.45;101570.41;5083075;28;20212;-40
2023/04/21 08:16:54;;;;;;;7.22;4.88;;;;;;;18.42;44.35;101563.19;5075834;28;20048;-41
2023/04/21 08:19:22;;;;;;;6.85;5.10;;;;;;;18.43;44.53;101558.66;5082404;28;20045;-38
2023/04/21 08:21:49;;;;;;;7.72;5.00;;;;;;;18.44;44.46;101561.19;5084713;28;20063;-41
2023/04/21 08:24:15;;;;;;;9.20;5.32;;;;;;;18.45;44.43;101549.50;5080995;28;20059;-41
2023/04/21 08:26:43;;;;;;;6.45;4.72;;;;;;;18.46;44.77;101551.19;5084513;28;20126;-41
2023/04/21 08:29:09;;;;;;;8.50;5.43;;;;;;;18.48;44.88;101556.41;5083645;28;20044;-39
2023/04/21 08:31:36;;;;;;;6.18;4.70;;;;;;;18.51;44.39;101548.09;5079059;28;20106;-39
2023/04/21 08:34:03;;;;;;;7.10;5.15;;;;;;;18.52;44.46;101543.56;5080507;28;20400;-37
2023/04/21 08:36:30;;;;;;;6.75;5.40;;;;;;;18.54;44.41;101546.97;5082394;28;20048;-41
2023/04/21 08:38:57;;;;;;;8.95;6.00;;;;;;;18.55;44.76;101549.50;5077808;28;20183;-41
2023/04/21 08:41:25;;;;;;;7.43;4.65;;;;;;;18.58;44.57;101551.06;5081615;28;20052;-41
2023/04/21 08:43:51;;;;;;;6.82;4.88;;;;;;;18.59;44.29;101555.44;5084288;28;20060;-41
2023/04/21 08:46:18;;;;;;;7.65;5.30;;;;;;;18.62;44.14;101564.06;5079731;28;20155;-41
2023/04/21 08:48:46;;;;;;;8.13;5.40;;;;;;;18.63;43.91;101554.16;5080481;28;20131;-41
2023/04/21 08:51:20;;;;;;;6.72;5.43;;;;;;;18.65;44.04;101553.06;5075191;28;20044;-42
2023/04/21 08:53:47;;;;;;;7.35;4.85;;;;;;;18.67;44.30;101559.13;5086224;28;20048;-40
2023/04/21 08:56:13;;;;;;;7.50;5.53;;;;;;;18.69;44.48;101551.78;5084114;28;20044;-40
2023/04/21 08:58:40;;;;;;;8.95;5.53;;;;;;;18.70;44.26;101545.44;5083243;28;20041;-40
2023/04/21 09:01:07;;;;;;;8.25;5.60;;;;;;;18.72;44.37;101547.97;5079370;28;20048;-41
2023/04/21 09:03:35;;;;;;;9.85;6.72;;;;;;;18.73;44.20;101545.19;5079104;28;20072;-41
2023/04/21 09:06:08;;;;;;;8.48;5.63;;;;;;;18.76;44.20;101543.19;5080871;28;20162;-41
2023/04/21 09:08:42;;;;;;;8.60;6.10;;;;;;;18.76;44.12;101537.81;5082638;28;20048;-41
2023/04/21 09:11:13;;;;;;;7.90;6.07;;;;;;;18.79;44.43;101533.00;5081144;28;20048;-41
2023/04/21 09:13:41;;;;;;;6.53;4.95;;;;;;;18.80;43.74;101540.06;5080001;28;20123;-40
2023/04/21 09:16:19;;;;;;;7.15;5.45;;;;;;;18.82;44.47;101539.94;5078531;28;20039;-40
2023/04/21 09:18:48;;;;;;;8.43;5.00;;;;;;;18.83;43.96;101538.94;5080171;28;20273;-41
2023/04/21 09:21:16;;;;;;;6.22;4.78;;;;;;;18.86;44.05;101544.03;5080986;28;20075;-41
2023/04/21 09:23:50;;;;;;;7.20;4.75;;;;;;;18.86;44.46;101544.88;5080496;28;20354;-40
2023/04/21 09:26:18;;;;;;;7.47;4.78;;;;;;;18.89;44.39;101536.53;5084260;28;20054;-39
2023/04/21 09:28:46;;;;;;;7.82;4.82;;;;;;;18.89;44.02;101538.38;5084049;28;20054;-37
2023/04/21 09:31:18;;;;;;;10.13;5.80;;;;;;;18.91;44.12;101541.78;5080587;28;20046;-41
2023/04/21 09:33:46;;;;;;;7.88;5.35;;;;;;;18.92;43.97;101535.41;5078318;28;20534;-41
2023/04/21 09:36:26;;;;;;;7.28;5.47;;;;;;;18.93;44.06;101529.03;5085883;28;20044;-41
2023/04/21 09:38:53;;;;;;;9.27;5.70;;;;;;;18.94;44.18;101531.59;5078331;28;20055;-39
2023/04/21 09:41:40;;;;;;;5.20;4.40;;;;;;;18.96;43.99;101528.75;5083770;28;20054;-40
2023/04/21 09:44:06;;;;;;;6.72;4.80;;;;;;;18.98;44.36;101522.25;5088967;28;20043;-40
2023/04/21 09:46:35;;;;;;;6.78;4.68;;;;;;;19.00;44.31;101524.78;5086714;28;20075;-40
2023/04/21 09:49:03;;;;;;;5.85;4.15;;;;;;;19.02;44.03;101527.34;5086171;28;20056;-37
2023/04/21 09:51:31;;;;;;;7.40;5.55;;;;;;;19.02;43.70;101525.50;5082123;28;20048;-42
2023/04/21 09:54:14;;;;;;;7.15;4.93;;;;;;;19.03;44.17;101523.66;5081265;28;20051;-42
2023/04/21 09:56:56;;;;;;;;;;;;;;;19.04;44.51;101514.59;5086232;28;20076;-41
2023/04/21 09:59:31;;;;;;;6.72;4.85;;;;;;;19.07;44.34;101514.31;5081031;28;19919;-41
2023/04/21 10:01:59;;;;;;;6.88;4.97;;;;;;;19.06;43.84;101505.41;5085651;28;20514;-41
2023/04/21 10:04:29;;;;;;;7.32;5.57;;;;;;;19.06;44.19;101505.41;5086371;28;20062;-42
2023/04/21 10:07:00;;;;;;;9.95;6.57;;;;;;;19.06;43.91;101509.94;5085174;28;20040;-38
2023/04/21 10:09:37;;;;;;;7.88;5.85;;;;;;;19.05;44.23;101511.75;5080991;28;20449;-39
2023/04/21 10:12:05;;;;;;;10.60;5.93;;;;;;;19.07;43.94;101507.09;5081450;28;20127;-40
2023/04/21 10:14:35;;;;;;;10.43;6.40;;;;;;;19.07;43.82;101500.88;5079914;28;20083;-41
2023/04/21 10:17:06;;;;;;;7.88;5.97;;;;;;;19.07;44.04;101514.31;5073759;28;20044;-40
2023/04/21 10:19:38;;;;;;;8.48;6.03;;;;;;;19.09;43.85;101512.31;5076641;28;20047;-40
2023/04/21 10:22:07;;;;;;;9.27;6.18;;;;;;;19.08;44.46;101506.09;5084307;28;20048;-40
2023/04/21 10:24:41;;;;;;;7.68;5.07;;;;;;;19.09;43.72;101515.00;5083043;28;20147;-40
2023/04/21 10:27:29;;;;;;;7.00;5.55;;;;;;;19.09;43.90;101517.69;5080325;28;20040;-38
2023/04/21 10:29:57;;;;;;;7.25;5.10;;;;;;;19.09;43.45;101504.25;5082656;28;20044;-40
2023/04/21 10:32:41;;;;;;;8.13;5.32;;;;;;;19.09;43.95;101498.88;5077387;28;20070;-39
2023/04/21 10:35:13;;;;;;;7.05;5.07;;;;;;;19.10;43.94;101504.13;5081564;28;20637;-40
2023/04/21 10:37:43;;;;;;;8.48;5.32;;;;;;;19.10;43.84;101500.59;5081898;28;20040;-40
2023/04/21 10:40:29;;;;;;;8.10;5.10;;;;;;;19.10;44.15;101500.59;5073512;28;20048;-40
2023/04/21 10:43:41;;;;;;;8.07;5.90;;;;;;;19.11;44.49;101492.38;5083416;28;20054;-40
2023/04/21 10:46:30;;;;;;;6.72;5.25;;;;;;;19.13;44.12;101490.38;5080596;28;20051;-40
2023/04/21 10:49:24;;;;;;;7.30;4.88;;;;;;;19.14;44.39;101494.78;5086580;28;20044;-39
2023/04/21 10:52:03;;;;;;;7.22;4.38;;;;;;;19.15;43.90;101484.88;5075668;28;20118;-38
2023/04/21 10:55:03;;;;;;;5.70;4.60;;;;;;;19.16;44.43;101481.19;5082584;28;20043;-40
2023/04/21 10:57:34;;;;;;;6.75;4.95;;;;;;;19.17;43.68;101481.03;5077873;28;20060;-40
2023/04/21 11:00:05;;;;;;;8.95;5.65;;;;;;;19.16;43.67;101476.66;5084636;28;20079;-40
2023/04/21 11:02:33;;;;;;;10.63;6.10;;;;;;;19.16;43.84;101475.81;5083043;28;20110;-41
2023/04/21 11:05:06;;;;;;;5.60;4.47;;;;;;;19.16;43.92;101468.59;5086474;28;20098;-41
2023/04/21 11:07:32;;;;;;;7.80;5.45;;;;;;;19.19;44.12;101472.84;5086826;28;20062;-40
2023/04/21 11:10:01;;;;;;;8.10;6.00;;;;;;;19.18;44.09;101463.09;5087068;28;20052;-41
2023/04/21 11:12:30;;;;;;;7.95;6.45;;;;;;;19.18;43.37;101463.94;5083413;28;20054;-41
2023/04/21 11:14:57;;;;;;;6.63;4.43;;;;;;;19.19;43.52;101457.56;5081464;28;20480;-41
2023/04/21 11:17:24;;;;;;;7.45;5.65;;;;;;;19.21;43.88;101454.72;5079663;28;20055;-40
2023/04/21 11:19:53;;;;;;;8.80;5.78;;;;;;;19.20;44.03;101461.94;5081818;28;20386;-40
2023/04/21 11:22:25;;;;;;;9.77;6.43;;;;;;;19.21;43.87;101455.56;5082178;28;20052;-41
2023/04/21 11:24:56;;;;;;;6.03;4.80;;;;;;;19.20;44.13;101445.81;5083321;28;20135;-41
2023/04/21 11:27:25;;;;;;;10.82;6.13;;;;;;;19.21;44.24;101436.75;5084324;28;20048;-41
2023/04/21 11:29:51;;;;;;;7.28;4.60;;;;;;;19.22;43.93;101432.25;5084920;28;20528;-40